Time;durP1;ratioP1;P1;durP2;ratioP2;P2;SDS_P1;SDS_P2;PMS_P1;PMS_P2;Temp;Humidity;BMP_temperature;BMP_pressure;BME280_temperature;BME280_humidity;BME280_pressure;Samples;Min_cycle;Max_cycle;Signal;HPM_P1;HPM_P2
2023/03/23 00:00:56;;;;;;;;;0.00;0.00;;;;;15.17;66.35;100106.94;2089790;28;47032;-65
2023/03/23 00:01:56;;;;;;;;;0.00;0.00;;;;;15.17;66.02;100111.41;2078650;28;46234;-65
2023/03/23 00:02:56;;;;;;;;;1.00;0.33;;;;;15.16;66.11;100105.19;2080447;28;45694;-65
2023/03/23 00:03:59;;;;;;;;;1.00;0.00;;;;;15.16;66.10;100105.19;2086660;28;46507;-66
2023/03/23 00:05:00;;;;;;;;;1.50;0.25;;;;;15.15;66.23;100113.28;2088317;28;47300;-65
2023/03/23 00:06:06;;;;;;;;;0.75;0.75;;;;;15.15;66.13;100122.19;2086328;28;47014;-64
2023/03/23 00:07:07;;;;;;;;;1.50;0.25;;;;;15.16;65.83;100117.69;2086555;28;46068;-65
2023/03/23 00:08:12;;;;;;;;;1.00;1.00;;;;;15.15;66.28;100108.81;2088415;28;47031;-66
2023/03/23 00:09:23;;;;;;;;;1.00;1.00;;;;;15.15;66.00;100121.31;2086435;28;46165;-64
2023/03/23 00:10:24;;;;;;;;;1.25;1.25;;;;;15.15;65.87;100118.63;2086224;28;46327;-64
2023/03/23 00:11:28;;;;;;;;;1.00;1.00;;;;;15.16;66.16;100117.69;2086308;28;46566;-66
2023/03/23 00:12:34;;;;;;;;;1.25;1.25;;;;;15.16;66.17;100123.03;2089795;28;45609;-69
2023/03/23 00:13:34;;;;;;;;;0.25;0.25;;;;;15.13;66.20;100108.03;2077431;28;46451;-66
2023/03/23 00:14:41;;;;;;;;;0.33;0.33;;;;;15.14;65.87;100125.78;2078736;28;46336;-66
2023/03/23 00:15:42;;;;;;;;;0.25;0.25;;;;;15.13;66.27;100116.03;2086707;28;46494;-65
2023/03/23 00:16:42;;;;;;;;;0.25;0.25;;;;;15.12;66.28;100113.41;2086679;28;46312;-64
2023/03/23 00:17:45;;;;;;;;;1.00;1.00;;;;;15.11;65.74;100112.56;2086624;28;46652;-64
2023/03/23 00:18:54;;;;;;;;;0.50;0.50;;;;;15.12;66.38;100106.31;2086008;28;46885;-64
2023/03/23 00:19:54;;;;;;;;;0.00;0.00;;;;;15.11;65.44;100095.66;2084187;28;46867;-65
2023/03/23 00:20:56;;;;;;;;;0.00;0.00;;;;;15.09;66.15;100093.06;2084685;28;46186;-64
2023/03/23 00:22:00;;;;;;;;;0.00;0.00;;;;;15.08;65.42;100098.50;2083118;28;46471;-65
2023/03/23 00:23:00;;;;;;;;;0.75;0.75;;;;;15.06;65.85;100100.38;2086809;28;46413;-65
2023/03/23 00:24:12;;;;;;;;;2.00;1.00;;;;;15.07;66.07;100099.44;2094751;28;46463;-65
2023/03/23 00:25:13;;;;;;;;;0.00;0.00;;;;;15.07;66.37;100100.31;2088030;28;46793;-66
2023/03/23 00:26:13;;;;;;;;;1.33;1.33;;;;;15.06;65.81;100098.56;2095275;28;46127;-63
2023/03/23 00:27:14;;;;;;;;;0.33;0.33;;;;;15.07;65.81;100094.09;2102127;27;46279;-66
2023/03/23 00:28:16;;;;;;;;;0.00;0.00;;;;;15.08;65.85;100098.50;2098221;28;46461;-64
2023/03/23 00:29:20;;;;;;;;;0.25;0.25;;;;;15.07;65.62;100097.63;2102008;27;46714;-65
2023/03/23 00:30:21;;;;;;;;;0.75;0.75;;;;;15.06;65.52;100077.19;2103171;27;46256;-67
2023/03/23 00:31:22;;;;;;;;;0.25;0.00;;;;;15.06;66.03;100095.91;2103705;28;46941;-65
2023/03/23 00:32:27;;;;;;;;;0.00;0.00;;;;;15.06;65.63;100090.56;2091598;28;46168;-64
2023/03/23 00:33:29;;;;;;;;;1.25;0.25;;;;;15.06;65.61;100103.91;2090330;28;45288;-66
2023/03/23 00:34:34;;;;;;;;;1.25;1.25;;;;;15.05;65.71;100093.31;2098291;27;46422;-65
2023/03/23 00:35:35;;;;;;;;;0.75;0.75;;;;;15.05;65.47;100096.84;2103454;27;46263;-66
2023/03/23 00:36:42;;;;;;;;;0.25;0.25;;;;;15.04;65.55;100100.47;2109167;27;46882;-65
2023/03/23 00:37:43;;;;;;;;;2.00;2.00;;;;;15.04;65.63;100097.78;2106188;27;46901;-65
2023/03/23 00:38:44;;;;;;;;;0.75;0.75;;;;;15.05;65.63;100096.84;2097683;28;46385;-65
2023/03/23 00:39:45;;;;;;;;;1.67;0.67;;;;;15.08;65.60;100098.50;2098473;28;46133;-64
2023/03/23 00:40:47;;;;;;;;;1.25;1.25;;;;;15.06;65.62;100087.88;2096984;28;46360;-64
2023/03/23 00:41:47;;;;;;;;;1.25;0.75;;;;;15.06;65.55;100082.53;2098339;28;46708;-66
2023/03/23 00:42:48;;;;;;;;;1.33;0.00;;;;;15.07;65.64;100086.06;2108293;27;46544;-65
2023/03/23 00:43:48;;;;;;;;;2.33;2.00;;;;;15.07;65.46;100100.31;2107352;27;46638;-64
2023/03/23 00:44:49;;;;;;;;;2.00;1.00;;;;;15.06;65.36;100087.88;2107164;27;46552;-64
2023/03/23 00:45:53;;;;;;;;;0.50;0.50;;;;;15.06;65.76;100087.03;2106568;27;46346;-64
2023/03/23 00:46:56;;;;;;;;;0.25;0.25;;;;;15.04;65.65;100089.78;2096698;28;47295;-65
2023/03/23 00:47:56;;;;;;;;;0.25;0.25;;;;;15.05;65.40;100096.84;2099862;28;46033;-66
2023/03/23 00:48:57;;;;;;;;;0.33;0.33;;;;;15.04;65.76;100089.78;2096185;28;46833;-66
2023/03/23 00:49:57;;;;;;;;;1.00;1.00;;;;;15.04;65.41;100087.09;2096435;28;46659;-66
2023/03/23 00:50:57;;;;;;;;;1.67;1.67;;;;;15.05;65.80;100085.28;2106162;27;46510;-65
2023/03/23 00:51:58;;;;;;;;;1.00;1.00;;;;;15.06;65.37;100076.34;2105577;27;46241;-65
2023/03/23 00:52:58;;;;;;;;;1.33;0.67;;;;;15.06;65.53;100076.34;2102313;27;47218;-64
2023/03/23 00:53:59;;;;;;;;;2.00;1.67;;;;;15.05;65.95;100071.94;2101937;27;46618;-65
2023/03/23 00:54:59;;;;;;;;;0.33;0.33;;;;;15.02;65.32;100081.84;2096166;28;46209;-64
2023/03/23 00:56:00;;;;;;;;;1.33;1.33;;;;;15.02;65.61;100076.50;2097361;28;46389;-66
2023/03/23 00:57:01;;;;;;;;;0.33;0.33;;;;;15.04;65.63;100068.41;2105609;27;46350;-64
2023/03/23 00:58:01;;;;;;;;;1.25;1.25;;;;;15.03;65.50;100066.66;2097646;28;46900;-65
2023/03/23 00:59:02;;;;;;;;;1.33;1.33;;;;;15.03;65.94;100069.34;2097331;28;45627;-64
2023/03/23 01:00:10;;;;;;;;;4.50;1.75;;;;;15.03;65.37;100082.69;2105170;27;46571;-65
2023/03/23 01:01:11;;;;;;;;;1.50;1.50;;;;;15.03;65.85;100085.38;2096870;28;46624;-65
2023/03/23 01:02:11;;;;;;;;;1.67;1.67;;;;;15.04;65.86;100080.91;2096615;28;46475;-64
2023/03/23 01:03:11;;;;;;;;;1.33;1.33;;;;;15.05;65.88;100093.31;2105516;27;46844;-65
2023/03/23 01:04:12;;;;;;;;;1.33;1.33;;;;;15.02;65.46;100086.31;2107407;27;46172;-66
2023/03/23 01:05:12;;;;;;;;;0.67;0.67;;;;;15.02;65.34;100087.19;2096653;28;46280;-65
2023/03/23 01:06:13;;;;;;;;;0.33;0.33;;;;;15.02;65.68;100086.31;2096223;28;46410;-65
2023/03/23 01:07:13;;;;;;;;;1.00;0.33;;;;;15.02;65.92;100086.31;2097702;28;45683;-67
2023/03/23 01:08:14;;;;;;;;;0.67;0.67;;;;;15.01;65.98;100082.78;2090662;28;47389;-65
2023/03/23 01:09:16;;;;;;;;;0.33;0.33;;;;;15.03;65.47;100082.69;2106510;27;46615;-66
2023/03/23 01:10:17;;;;;;;;;1.00;1.00;;;;;15.04;65.48;100091.59;2106121;27;45101;-64
2023/03/23 01:11:17;;;;;;;;;1.25;1.25;;;;;15.04;65.99;100080.91;2105545;27;46877;-64
2023/03/23 01:12:18;;;;;;;;;1.33;1.33;;;;;15.05;65.89;100071.94;2106136;27;46178;-65
2023/03/23 01:13:19;;;;;;;;;1.50;1.00;;;;;15.05;65.67;100071.94;2096039;28;46301;-64
2023/03/23 01:14:20;;;;;;;;;1.33;1.33;;;;;15.06;65.91;100081.69;2088871;28;46418;-66
2023/03/23 01:15:21;;;;;;;;;1.25;1.25;;;;;15.06;65.97;100089.69;2097400;28;45593;-65
2023/03/23 01:16:22;;;;;;;;;1.00;1.00;;;;;15.06;65.97;100084.34;2106069;27;46673;-65
2023/03/23 01:17:22;;;;;;;;;0.33;0.33;;;;;15.05;66.03;100086.16;2110116;27;45854;-65
2023/03/23 01:18:22;;;;;;;;;4.00;2.00;;;;;15.04;65.80;100087.09;2115391;27;46817;-64
2023/03/23 01:19:23;;;;;;;;;0.00;0.00;;;;;15.04;66.13;100086.25;2119531;27;46891;-65
2023/03/23 01:20:26;;;;;;;;;1.00;1.00;;;;;15.05;65.83;100087.97;2105778;27;46560;-64
2023/03/23 01:21:26;;;;;;;;;3.25;2.25;;;;;15.04;65.89;100084.44;2096050;28;46756;-65
2023/03/23 01:22:27;;;;;;;;;1.00;1.00;;;;;15.04;66.26;100071.06;2102295;28;46656;-65
2023/03/23 01:23:27;;;;;;;;;0.33;0.33;;;;;15.04;66.10;100068.41;2105534;27;46363;-64
2023/03/23 01:24:27;;;;;;;;;1.33;1.33;;;;;15.04;65.99;100065.72;2111042;27;46627;-66
2023/03/23 01:25:31;;;;;;;;;1.33;1.33;;;;;15.04;66.04;100084.44;2103714;27;46557;-65
2023/03/23 01:26:32;;;;;;;;;1.75;1.25;;;;;15.02;66.29;100054.25;2105775;27;46801;-66
2023/03/23 01:27:32;;;;;;;;;2.67;1.67;;;;;15.02;66.42;100079.16;2101229;27;46578;-67
2023/03/23 01:28:34;;;;;;;;;1.33;1.33;;;;;15.02;66.06;100063.13;2105410;27;45145;-66
2023/03/23 01:29:35;;;;;;;;;2.50;1.00;;;;;15.01;66.47;100077.44;2096549;28;46610;-65
2023/03/23 01:30:35;;;;;;;;;0.67;0.67;;;;;14.99;66.17;100090.00;2096350;28;46288;-65
2023/03/23 01:31:39;;;;;;;;;0.67;0.67;;;;;15.00;66.38;100094.41;2106363;27;45976;-66
2023/03/23 01:32:39;;;;;;;;;1.00;1.00;;;;;14.99;66.55;100083.78;2105353;27;46550;-65
2023/03/23 01:33:41;;;;;;;;;2.00;2.00;;;;;14.98;66.64;100082.03;2099691;27;46179;-64
2023/03/23 01:34:42;;;;;;;;;2.00;1.25;;;;;14.97;66.41;100091.00;2088351;28;47045;-65
2023/03/23 01:35:42;;;;;;;;;1.67;1.67;;;;;14.97;66.50;100080.31;2080860;28;46357;-66
2023/03/23 01:36:42;;;;;;;;;2.33;2.33;;;;;14.97;66.57;100083.00;2088130;28;46274;-66
2023/03/23 01:37:43;;;;;;;;;1.33;1.33;;;;;14.97;66.98;100080.31;2096012;28;46184;-66
2023/03/23 01:38:45;;;;;;;;;3.00;3.00;;;;;14.96;66.68;100071.44;2108517;27;46703;-65
2023/03/23 01:39:46;;;;;;;;;1.00;1.00;;;;;14.95;66.81;100068.84;2098362;27;46924;-65
2023/03/23 01:40:46;;;;;;;;;1.33;1.33;;;;;14.95;66.76;100060.84;2097054;28;46813;-65
2023/03/23 01:41:46;;;;;;;;;2.33;2.33;;;;;14.94;66.83;100069.78;2101811;27;46477;-65
2023/03/23 01:42:47;;;;;;;;;1.67;1.67;;;;;14.93;66.85;100065.41;2105429;27;46228;-65
2023/03/23 01:44:28;;;;;;;;;1.67;1.67;;;;;14.93;66.41;100057.38;2101739;28;46101;-64
2023/03/23 01:45:35;;;;;;;;;2.00;2.00;;;;;14.94;66.82;100072.47;2062198;28;46315;-64
2023/03/23 01:46:36;;;;;;;;;3.50;3.50;;;;;14.94;66.36;100045.75;2063810;28;46535;-65
2023/03/23 01:47:37;;;;;;;;;2.25;2.25;;;;;14.93;66.72;100047.56;2062830;28;45179;-65
2023/03/23 01:48:38;;;;;;;;;2.33;2.33;;;;;14.95;66.51;100047.47;2055067;28;46561;-63
2023/03/23 01:49:46;;;;;;;;;0.75;0.75;;;;;14.95;66.31;100053.69;2055410;28;46641;-65
2023/03/23 01:50:55;;;;;;;;;3.00;2.50;;;;;14.95;66.92;100051.00;2062521;28;46621;-65
2023/03/23 01:52:04;;;;;;;;;2.25;2.25;;;;;14.95;66.59;100044.81;2062874;28;46768;-65
2023/03/23 01:53:08;;;;;;;;;2.75;2.25;;;;;14.94;66.84;100030.56;2067134;28;46271;-64
2023/03/23 01:54:13;;;;;;;;;4.00;3.00;;;;;14.92;66.77;100032.47;2062988;28;47076;-65
2023/03/23 01:55:14;;;;;;;;;3.00;3.00;;;;;14.92;66.46;100023.59;2063179;28;46298;-65
2023/03/23 01:56:18;;;;;;;;;1.33;1.33;;;;;14.90;66.61;100031.69;2063403;28;46630;-64
2023/03/23 01:57:23;;;;;;;;;3.75;3.75;;;;;14.90;66.65;100037.03;2063769;28;46517;-65
2023/03/23 01:58:27;;;;;;;;;4.25;4.25;;;;;14.90;66.96;100025.47;2063575;28;46790;-65
2023/03/23 01:59:30;;;;;;;;;3.25;3.25;;;;;14.89;66.74;100019.28;2063310;28;45979;-64
2023/03/23 02:00:31;;;;;;;;;3.00;2.00;;;;;14.87;66.67;100018.50;2062904;28;46548;-65
2023/03/23 02:01:36;;;;;;;;;4.00;4.00;;;;;14.86;67.09;100006.03;2064270;28;46859;-65
2023/03/23 02:02:38;;;;;;;;;3.00;3.00;;;;;14.86;66.88;100016.72;2062952;28;47050;-65
2023/03/23 02:03:42;;;;;;;;;2.25;1.25;;;;;14.86;66.92;100018.53;2054457;28;46187;-65
2023/03/23 02:04:44;;;;;;;;;1.75;1.75;;;;;14.85;66.92;100016.81;2061465;28;46262;-66
2023/03/23 02:05:44;;;;;;;;;1.75;1.75;;;;;14.83;66.63;100014.22;2064852;28;45989;-65
2023/03/23 02:06:45;;;;;;;;;2.00;1.67;;;;;14.82;67.08;100011.63;2071258;28;44954;-66
2023/03/23 02:07:47;;;;;;;;;1.33;1.33;;;;;14.82;66.71;100016.97;2056427;28;45154;-65
2023/03/23 02:08:50;;;;;;;;;2.00;2.00;;;;;14.83;66.62;100016.91;2054831;28;46505;-63
2023/03/23 02:09:51;;;;;;;;;1.00;1.00;;;;;14.84;66.47;100026.63;2062264;28;46293;-64
2023/03/23 02:10:52;;;;;;;;;1.25;1.25;;;;;14.85;66.58;100011.47;2067662;28;45983;-64
2023/03/23 02:11:54;;;;;;;;;1.33;1.33;;;;;14.85;66.84;100027.50;2062759;28;46376;-65
2023/03/23 02:12:55;;;;;;;;;1.25;1.25;;;;;14.85;66.71;100019.47;2061480;28;46611;-64
2023/03/23 02:13:55;;;;;;;;;2.00;2.00;;;;;14.86;66.45;100019.41;2063951;28;45340;-64
2023/03/23 02:14:56;;;;;;;;;0.67;0.67;;;;;14.87;66.74;100014.97;2047073;28;45524;-64
2023/03/23 02:16:06;;;;;;;;;1.75;1.75;;;;;14.88;66.21;100025.56;2061218;28;46794;-65
2023/03/23 02:17:30;;;;;;;;;1.00;1.00;;;;;14.89;66.48;100029.97;2069439;28;45755;-64
2023/03/23 02:18:42;;;;;;;;;1.25;1.25;;;;;14.90;67.08;100033.50;2070770;28;46418;-65
2023/03/23 02:19:54;;;;;;;;;1.50;1.50;;;;;14.88;66.52;100041.59;2046604;28;46684;-65
2023/03/23 02:21:26;;;;;;;;;1.25;1.25;;;;;14.89;66.51;100045.13;2060323;28;45792;-65
2023/03/23 02:22:53;;;;;;;;;1.25;1.25;;;;;14.90;66.81;100057.53;2069987;28;46912;-64
2023/03/23 02:24:15;;;;;;;;;1.00;1.00;;;;;14.89;66.64;100063.81;2103982;27;47288;-63
2023/03/23 02:25:27;;;;;;;;;3.00;3.00;;;;;14.87;66.94;100063.91;2103613;28;46533;-64
2023/03/23 02:33:13;;;;;;;;;1.00;1.00;;;;;14.91;66.63;100072.63;2099644;28;46101;-64
2023/03/23 02:34:28;;;;;;;;;1.00;1.00;;;;;14.90;66.58;100076.25;2092627;28;45839;-66
2023/03/23 02:35:39;;;;;;;;;3.50;2.75;;;;;14.89;66.60;100075.38;2100834;28;46683;-63
2023/03/23 02:36:43;;;;;;;;;0.00;0.00;;;;;14.88;66.85;100072.78;2094444;28;46610;-64
2023/03/23 02:37:50;;;;;;;;;2.00;1.50;;;;;14.85;66.38;100073.78;2091847;28;46830;-66
2023/03/23 02:38:58;;;;;;;;;1.00;1.00;;;;;14.87;66.94;100081.75;2101687;28;46842;-65
2023/03/23 02:40:11;;;;;;;;;1.25;1.25;;;;;14.86;66.76;100070.16;2097206;28;46705;-65
2023/03/23 02:41:13;;;;;;;;;3.00;1.00;;;;;14.84;66.72;100077.38;2088784;28;46448;-65
2023/03/23 02:42:20;;;;;;;;;1.50;1.50;;;;;14.84;66.37;100081.88;2097263;28;46147;-66
2023/03/23 02:43:24;;;;;;;;;1.00;1.00;;;;;14.84;66.48;100079.19;2100530;28;46429;-63
2023/03/23 02:44:29;;;;;;;;;1.00;1.00;;;;;14.81;66.38;100068.66;2089368;28;46688;-64
2023/03/23 02:45:33;;;;;;;;;0.75;0.75;;;;;14.81;66.70;100076.69;2104382;27;46429;-65
2023/03/23 02:46:35;;;;;;;;;2.00;1.00;;;;;14.79;66.08;100068.75;2105163;27;46324;-65
2023/03/23 02:47:39;;;;;;;;;1.75;1.75;;;;;14.79;66.40;100082.09;2097542;27;46403;-65
2023/03/23 02:48:42;;;;;;;;;1.00;1.00;;;;;14.80;66.46;100082.97;2109021;27;46728;-64
2023/03/23 02:49:46;;;;;;;;;1.00;1.00;;;;;14.77;66.23;100070.63;2106554;27;46671;-65
2023/03/23 02:50:51;;;;;;;;;1.00;1.00;;;;;14.77;66.00;100069.78;2100725;27;46393;-64
2023/03/23 02:51:53;;;;;;;;;4.00;1.00;;;;;14.76;66.22;100074.25;2109303;27;46574;-65
2023/03/23 02:52:58;;;;;;;;;0.25;0.25;;;;;14.77;66.41;100075.13;2100831;27;46564;-64
2023/03/23 02:53:59;;;;;;;;;2.25;0.75;;;;;14.75;66.34;100074.34;2099360;28;46323;-64
2023/03/23 02:55:01;;;;;;;;;2.25;2.00;;;;;14.73;66.58;100069.03;2096800;28;46334;-64
2023/03/23 02:56:04;;;;;;;;;1.75;1.75;;;;;14.73;66.37;100055.69;2104606;28;47207;-64
2023/03/23 02:57:06;;;;;;;;;0.75;0.75;;;;;14.74;66.67;100057.44;2104288;28;46334;-65
2023/03/23 02:58:07;;;;;;;;;1.00;1.00;;;;;14.75;66.32;100055.63;2105591;27;46612;-65
2023/03/23 02:59:07;;;;;;;;;0.00;0.00;;;;;14.76;66.27;100049.34;2104743;28;46997;-64
2023/03/23 03:00:13;;;;;;;;;2.33;1.67;;;;;14.76;66.37;100055.56;2101550;28;46666;-64
2023/03/23 03:01:25;;;;;;;;;3.75;1.00;;;;;14.78;66.37;100058.16;2102151;28;46701;-66
2023/03/23 03:02:36;;;;;;;;;0.00;0.00;;;;;14.77;66.46;100054.59;2098353;28;46597;-64
2023/03/23 03:03:36;;;;;;;;;1.25;1.25;;;;;14.78;66.38;100048.31;2104639;28;46814;-65
2023/03/23 03:04:40;;;;;;;;;1.00;1.00;;;;;14.79;66.37;100043.84;2097688;28;46114;-66
2023/03/23 03:05:46;;;;;;;;;1.75;1.75;;;;;14.80;66.59;100053.59;2092202;27;47498;-66
2023/03/23 03:06:57;;;;;;;;;2.00;2.00;;;;;14.79;65.94;100050.06;2100022;28;47020;-66
2023/03/23 03:08:24;;;;;;;;;2.00;2.00;;;;;14.80;66.06;100049.09;2101137;28;46969;-67
2023/03/23 03:09:43;;;;;;;;;1.25;0.25;;;;;14.80;66.28;100040.22;2086405;28;46035;-64
2023/03/23 03:11:06;;;;;;;;;0.75;0.75;;;;;14.81;65.93;100050.84;2086834;28;46493;-63
2023/03/23 03:12:27;;;;;;;;;0.75;0.75;;;;;14.81;66.04;100048.16;2086995;28;47069;-63
2023/03/23 03:13:40;;;;;;;;;0.75;0.50;;;;;14.80;66.43;100034.88;2085132;28;46300;-64
2023/03/23 03:15:15;;;;;;;;;1.75;1.75;;;;;14.81;66.12;100036.63;2087047;28;46405;-64
2023/03/23 03:16:24;;;;;;;;;1.00;1.00;;;;;14.80;66.17;100022.41;2054020;28;46733;-65
2023/03/23 03:17:29;;;;;;;;;0.25;0.25;;;;;14.81;66.42;100024.13;2054331;28;46651;-65
2023/03/23 03:18:38;;;;;;;;;1.25;1.25;;;;;14.81;66.22;100018.78;2053955;28;46734;-66
2023/03/23 03:19:42;;;;;;;;;0.75;0.75;;;;;14.82;66.32;100025.84;2054349;28;45516;-65
2023/03/23 03:20:49;;;;;;;;;3.25;1.00;;;;;14.81;66.01;100029.47;2054071;28;46687;-66
2023/03/23 03:21:52;;;;;;;;;1.00;1.00;;;;;14.79;66.10;100020.66;2054019;28;46866;-64
2023/03/23 03:22:54;;;;;;;;;2.25;2.25;;;;;14.81;66.00;100031.28;2053846;28;46506;-65
2023/03/23 03:24:00;;;;;;;;;1.00;1.00;;;;;14.82;66.00;100049.03;2054618;28;46420;-65
2023/03/23 03:25:01;;;;;;;;;2.50;2.50;;;;;14.82;66.28;100049.03;2054498;28;45952;-65
2023/03/23 03:26:04;;;;;;;;;2.67;2.67;;;;;14.82;66.20;100047.22;2053725;28;46366;-64
2023/03/23 03:27:10;;;;;;;;;1.00;1.00;;;;;14.83;66.11;100037.41;2053868;28;46492;-65
2023/03/23 03:28:10;;;;;;;;;2.25;1.25;;;;;14.82;66.53;100041.88;2053629;28;47096;-64
2023/03/23 03:29:11;;;;;;;;;0.67;0.67;;;;;14.83;66.27;100035.59;2054159;28;46317;-65
2023/03/23 03:30:16;;;;;;;;;1.67;0.67;;;;;14.84;66.06;100044.47;2054281;28;46838;-66
2023/03/23 03:31:19;;;;;;;;;1.75;0.75;;;;;14.83;65.99;100032.91;2054308;28;45596;-64
2023/03/23 03:32:27;;;;;;;;;0.50;0.50;;;;;14.85;66.29;100035.50;2053971;28;46619;-63
2023/03/23 03:33:31;;;;;;;;;0.50;0.50;;;;;14.86;66.60;100040.78;2058312;28;46805;-65
2023/03/23 03:34:33;;;;;;;;;1.00;1.00;;;;;14.88;66.39;100054.09;2059121;28;46671;-68
2023/03/23 03:35:37;;;;;;;;;2.00;2.00;;;;;14.89;65.99;100046.00;2054623;28;46379;-63
2023/03/23 03:36:40;;;;;;;;;3.25;1.75;;;;;14.90;66.45;100045.03;2054234;28;46345;-64
2023/03/23 03:37:41;;;;;;;;;1.50;1.00;;;;;14.92;66.21;100048.50;2054649;28;46528;-65
2023/03/23 03:38:43;;;;;;;;;2.33;2.00;;;;;14.92;66.05;100047.63;2054147;28;46671;-64
2023/03/23 03:39:43;;;;;;;;;1.00;1.00;;;;;14.91;66.37;100044.09;2053724;28;46822;-64
2023/03/23 03:40:43;;;;;;;;;2.00;2.00;;;;;14.93;65.94;100038.69;2054122;28;46570;-66
2023/03/23 03:41:44;;;;;;;;;1.00;1.00;;;;;14.92;65.85;100032.47;2042538;28;46237;-65
2023/03/23 03:42:45;;;;;;;;;0.00;0.00;;;;;14.92;66.31;100037.81;2044512;28;46294;-65
2023/03/23 03:43:46;;;;;;;;;1.25;1.00;;;;;14.93;66.62;100041.34;2053536;28;45763;-65
2023/03/23 03:44:46;;;;;;;;;0.33;0.33;;;;;14.93;66.28;100036.00;2034368;28;46264;-64
2023/03/23 03:45:47;;;;;;;;;1.00;0.00;;;;;14.92;66.50;100035.13;2034739;28;46160;-64
2023/03/23 03:46:47;;;;;;;;;0.00;0.00;;;;;14.95;65.88;100032.31;2056757;28;46159;-65
2023/03/23 03:47:47;;;;;;;;;0.00;0.00;;;;;14.96;66.33;100043.84;2069534;28;46199;-64
2023/03/23 03:48:48;;;;;;;;;0.33;0.33;;;;;14.94;65.84;100037.72;2053993;28;46329;-64
2023/03/23 03:49:48;;;;;;;;;0.00;0.00;;;;;14.93;65.81;100031.53;2054575;28;46424;-64
2023/03/23 03:50:48;;;;;;;;;1.67;1.67;;;;;14.92;65.78;100031.59;2068533;28;46650;-65
2023/03/23 03:51:49;;;;;;;;;0.00;0.00;;;;;14.91;66.14;100037.91;2070729;28;46450;-65
2023/03/23 03:52:49;;;;;;;;;0.67;0.67;;;;;14.90;66.05;100038.84;2062122;28;46566;-65
2023/03/23 03:53:49;;;;;;;;;0.67;0.67;;;;;14.90;66.15;100033.50;2073579;28;45152;-65
2023/03/23 03:54:50;;;;;;;;;1.67;1.67;;;;;14.90;66.37;100036.16;2102688;28;46018;-64
2023/03/23 03:55:55;;;;;;;;;0.75;0.75;;;;;14.89;66.56;100034.44;2103156;27;46611;-64
2023/03/23 03:56:57;;;;;;;;;2.00;2.00;;;;;14.91;66.13;100037.91;2099387;27;45477;-65
2023/03/23 03:57:58;;;;;;;;;0.75;0.75;;;;;14.90;66.47;100031.69;2104096;27;47046;-65
2023/03/23 03:58:59;;;;;;;;;1.00;1.00;;;;;14.91;66.11;100027.22;2105023;27;45593;-64
2023/03/23 04:00:00;;;;;;;;;1.67;1.67;;;;;14.92;66.23;100031.59;2104376;27;46434;-65
2023/03/23 04:01:00;;;;;;;;;1.00;1.00;;;;;14.92;66.64;100029.78;2105370;27;46917;-64
2023/03/23 04:02:02;;;;;;;;;1.00;1.00;;;;;14.93;66.55;100030.66;2104336;27;45956;-65
2023/03/23 04:03:03;;;;;;;;;1.25;1.25;;;;;14.92;66.36;100036.94;2100568;27;45594;-64
2023/03/23 04:04:06;;;;;;;;;1.33;1.33;;;;;14.92;66.85;100036.94;2106284;27;46745;-70
2023/03/23 04:05:08;;;;;;;;;0.00;0.00;;;;;14.90;66.72;100034.34;2095522;28;46130;-67
2023/03/23 04:06:10;;;;;;;;;1.50;1.50;;;;;14.89;66.42;100029.97;2096782;28;46633;-64
2023/03/23 04:07:13;;;;;;;;;2.00;2.00;;;;;14.88;67.02;100038.91;2104496;27;46334;-65
2023/03/23 04:08:13;;;;;;;;;0.75;0.75;;;;;14.88;66.76;100046.94;2104303;27;46146;-66
2023/03/23 04:09:14;;;;;;;;;0.67;0.67;;;;;14.88;66.60;100044.25;2089653;28;45559;-66
2023/03/23 04:10:15;;;;;;;;;1.67;1.67;;;;;14.87;66.78;100041.66;2089686;28;45968;-65
2023/03/23 04:11:15;;;;;;;;;1.67;0.67;;;;;14.88;66.48;100040.72;2097275;28;46123;-67
2023/03/23 04:12:16;;;;;;;;;1.00;1.00;;;;;14.87;66.90;100055.03;2096911;28;45132;-64
2023/03/23 04:13:17;;;;;;;;;0.67;0.67;;;;;14.87;66.63;100039.00;2105440;27;46596;-64
2023/03/23 04:14:18;;;;;;;;;1.75;1.75;;;;;14.86;66.67;100040.78;2102171;27;46573;-64
2023/03/23 04:15:18;;;;;;;;;1.25;1.25;;;;;14.86;66.57;100042.59;2106133;27;45684;-64
2023/03/23 04:16:19;;;;;;;;;0.00;0.00;;;;;14.86;66.74;100043.44;2106036;27;46383;-65
2023/03/23 04:17:20;;;;;;;;;1.00;1.00;;;;;14.85;67.21;100031.03;2106258;27;47733;-65
2023/03/23 04:18:21;;;;;;;;;2.00;1.67;;;;;14.85;67.04;100052.41;2105915;27;45956;-65
2023/03/23 04:19:22;;;;;;;;;1.25;1.25;;;;;14.85;67.24;100044.38;2105282;27;46379;-64
2023/03/23 04:20:23;;;;;;;;;2.00;2.00;;;;;14.87;67.01;100055.03;2106389;27;46903;-64
2023/03/23 04:21:23;;;;;;;;;4.00;2.00;;;;;14.85;66.90;100041.72;2105988;27;46422;-65
2023/03/23 04:22:29;;;;;;;;;0.67;0.67;;;;;14.86;67.18;100050.59;2106638;27;46267;-64
2023/03/23 04:23:33;;;;;;;;;1.00;1.00;;;;;14.86;66.74;100046.13;2105868;27;46901;-64
2023/03/23 04:24:35;;;;;;;;;1.00;1.00;;;;;14.87;66.70;100042.53;2105846;27;46889;-65
2023/03/23 04:25:35;;;;;;;;;1.00;1.00;;;;;14.86;66.89;100039.91;2111607;27;46741;-64
2023/03/23 04:26:36;;;;;;;;;3.00;1.00;;;;;14.87;66.74;100042.53;2106011;27;46680;-67
2023/03/23 04:27:36;;;;;;;;;2.67;2.67;;;;;14.86;66.88;100046.13;2105890;27;46781;-66
2023/03/23 04:28:36;;;;;;;;;1.67;1.67;;;;;14.87;67.26;100055.91;2105317;27;46804;-65
2023/03/23 04:29:37;;;;;;;;;2.00;1.33;;;;;14.87;66.92;100045.22;2105364;28;46622;-65
2023/03/23 04:30:37;;;;;;;;;1.67;1.67;;;;;14.86;66.87;100043.44;2096732;28;46488;-68
2023/03/23 04:31:38;;;;;;;;;0.33;0.33;;;;;14.86;67.05;100056.81;2098667;28;45312;-64
2023/03/23 04:32:41;;;;;;;;;1.00;1.00;;;;;14.86;67.11;100056.81;2110476;27;46398;-64
2023/03/23 04:33:42;;;;;;;;;2.25;2.00;;;;;14.85;67.17;100075.59;2105047;27;46910;-65
2023/03/23 04:34:42;;;;;;;;;3.00;1.00;;;;;14.86;67.19;100067.50;2097583;28;45575;-70
2023/03/23 04:35:45;;;;;;;;;1.00;1.00;;;;;14.85;67.22;100063.09;2097023;28;46113;-65
2023/03/23 04:36:46;;;;;;;;;3.25;2.00;;;;;14.84;66.94;100074.72;2109567;27;46459;-64
2023/03/23 04:37:47;;;;;;;;;0.33;0.33;;;;;14.86;67.27;100063.94;2108735;27;45809;-64
2023/03/23 04:38:47;;;;;;;;;1.67;1.00;;;;;14.87;67.03;100079.06;2112678;27;46642;-65
2023/03/23 04:39:47;;;;;;;;;0.33;0.33;;;;;14.88;67.55;100078.13;2111789;27;46653;-64
2023/03/23 04:40:53;;;;;;;;;1.00;1.00;;;;;14.88;67.41;100073.66;2096997;28;46190;-64
2023/03/23 04:41:54;;;;;;;;;1.00;1.00;;;;;14.88;67.35;100076.31;2094266;28;46675;-64
2023/03/23 04:42:57;;;;;;;;;2.00;2.00;;;;;14.88;66.96;100070.13;2100087;27;46343;-64
2023/03/23 04:44:02;;;;;;;;;1.00;0.25;;;;;14.87;67.01;100071.06;2113907;27;46024;-65
2023/03/23 04:45:05;;;;;;;;;1.50;0.75;;;;;14.88;66.46;100075.47;2108220;27;46938;-66
2023/03/23 04:46:08;;;;;;;;;0.00;0.00;;;;;14.87;66.87;100076.41;2104925;27;46786;-66
2023/03/23 04:47:09;;;;;;;;;1.25;1.25;;;;;14.87;66.43;100071.06;2105476;28;46499;-64
2023/03/23 04:48:09;;;;;;;;;2.00;1.00;;;;;14.85;66.89;100068.44;2109052;27;45713;-64
2023/03/23 04:49:10;;;;;;;;;0.00;0.00;;;;;14.87;66.65;100063.03;2110182;27;46106;-64
2023/03/23 04:50:12;;;;;;;;;2.67;1.00;;;;;14.87;66.90;100081.75;2103806;28;46352;-65
2023/03/23 04:51:13;;;;;;;;;1.25;1.00;;;;;14.87;66.62;100069.25;2098199;28;45411;-65
2023/03/23 04:52:13;;;;;;;;;1.00;1.00;;;;;14.88;66.59;100088.81;2096698;28;46717;-66
2023/03/23 04:53:14;;;;;;;;;1.33;0.67;;;;;14.87;66.68;100077.25;2102694;28;46183;-65
2023/03/23 04:54:14;;;;;;;;;0.67;0.67;;;;;14.88;66.61;100080.81;2109343;27;46155;-65
2023/03/23 04:55:15;;;;;;;;;0.00;0.00;;;;;14.87;66.76;100076.41;2106157;28;45717;-64
2023/03/23 04:56:15;;;;;;;;;1.00;1.00;;;;;14.87;66.45;100082.59;2102171;27;46916;-64
2023/03/23 04:57:15;;;;;;;;;1.67;1.67;;;;;14.86;66.36;100075.50;2102368;28;46951;-64
2023/03/23 04:58:16;;;;;;;;;0.67;0.67;;;;;14.86;66.62;100070.16;2105712;27;46637;-65
2023/03/23 04:59:16;;;;;;;;;0.67;0.67;;;;;14.84;66.26;100066.72;2096795;28;46853;-66
2023/03/23 05:00:18;;;;;;;;;1.67;1.67;;;;;14.84;66.96;100065.84;2088438;28;46283;-65
2023/03/23 05:01:18;;;;;;;;;1.75;0.50;;;;;14.84;66.99;100073.84;2103404;27;46895;-65